Terminal Aerodrome Forecast
Issued by NWS

Home | Current Version | Previous Version | Graphics & Text | Print | Product List | Glossary On
Versions: 1 2 3 4 5 6 7 8 9 10 11 12 13 14 15 16 17 18 19
000
FTUS43 KGRB 021700
TAFCWA
TAF
KCWA 021729Z 0218/0318 26009KT P6SM SCT050 SCT100
     FM022300 22003KT P6SM SCT040
     FM030100 23003KT P6SM SKC
     FM030900 VRB03KT 3SM BR SKC
     FM031400 18007KT P6SM FEW120 SCT200=

USA.gov is the U.S. government's official web portal to all federal, state and local government web resources and services.